createdAt,value
2019-03-08T00:01:04.043Z,9.02
2019-03-08T00:03:36.188Z,9.00
2019-03-08T00:06:08.240Z,8.98
2019-03-08T00:08:40.687Z,8.98
2019-03-08T00:11:12.641Z,9.03
2019-03-08T00:13:44.580Z,9.03
2019-03-08T00:16:16.564Z,8.91
2019-03-08T00:18:48.478Z,8.87
2019-03-08T00:21:20.730Z,8.82
2019-03-08T00:23:52.565Z,8.89
2019-03-08T00:26:24.416Z,8.92
2019-03-08T00:28:56.267Z,8.93
2019-03-08T00:31:28.190Z,9.05
2019-03-08T00:34:01.032Z,9.01
2019-03-08T00:36:35.720Z,9.00
2019-03-08T00:39:11.325Z,9.03
2019-03-08T00:41:43.095Z,9.04
2019-03-08T00:44:15.264Z,9.10
2019-03-08T00:46:47.054Z,9.14
2019-03-08T00:49:18.901Z,9.25
2019-03-08T00:51:50.942Z,9.23
2019-03-08T00:54:22.767Z,9.24
2019-03-08T00:56:54.564Z,9.32
2019-03-08T00:59:27.468Z,9.31
2019-03-08T01:01:59.257Z,9.31
2019-03-08T01:04:31.543Z,9.33
2019-03-08T01:07:03.732Z,9.32
2019-03-08T01:09:35.607Z,9.22
2019-03-08T01:12:07.449Z,9.28
2019-03-08T01:14:39.611Z,9.31
2019-03-08T01:17:11.386Z,9.21
2019-03-08T01:19:43.328Z,9.14
2019-03-08T01:22:15.465Z,9.28
2019-03-08T01:24:47.699Z,9.48
2019-03-08T01:27:20.844Z,9.54
2019-03-08T01:29:52.799Z,9.50
2019-03-08T01:32:24.566Z,9.44
2019-03-08T01:34:56.456Z,9.48
2019-03-08T01:37:29.071Z,9.48
2019-03-08T01:40:02.327Z,9.48
2019-03-08T01:42:35.623Z,9.47
2019-03-08T01:45:09.735Z,9.41
2019-03-08T01:47:41.633Z,9.40
2019-03-08T01:50:14.184Z,9.36
2019-03-08T01:52:47.751Z,9.35
2019-03-08T01:55:19.704Z,9.28
2019-03-08T01:57:52.308Z,8.97
2019-03-08T02:00:24.532Z,8.94
2019-03-08T02:03:05.218Z,9.11
2019-03-08T02:05:41.993Z,9.18
2019-03-08T02:08:14.057Z,9.10
2019-03-08T02:10:45.958Z,9.05
2019-03-08T02:13:19.875Z,9.06
2019-03-08T02:15:51.742Z,8.96
2019-03-08T02:18:23.591Z,9.16
2019-03-08T02:20:55.580Z,9.07
2019-03-08T02:23:38.044Z,9.04
2019-03-08T02:26:43.067Z,8.88
2019-03-08T02:29:16.048Z,8.88
2019-03-08T02:31:47.875Z,8.69
2019-03-08T02:34:20.075Z,8.79
2019-03-08T02:36:51.890Z,8.78
2019-03-08T02:39:23.691Z,8.77
2019-03-08T02:41:57.155Z,8.78
2019-03-08T02:44:30.568Z,8.84
2019-03-08T02:47:02.507Z,8.65
2019-03-08T02:49:34.318Z,8.56
2019-03-08T02:52:06.175Z,8.55
2019-03-08T02:54:38.018Z,8.63
2019-03-08T02:57:09.793Z,8.55
2019-03-08T02:59:41.779Z,8.63
2019-03-08T03:02:13.695Z,8.51
2019-03-08T03:04:45.645Z,8.60
2019-03-08T03:07:20.446Z,8.44
2019-03-08T03:09:52.272Z,8.06
2019-03-08T03:12:24.131Z,8.57
2019-03-08T03:14:56.494Z,8.58
2019-03-08T03:17:28.276Z,8.62
2019-03-08T03:20:02.823Z,8.55
2019-03-08T03:22:37.386Z,8.31
2019-03-08T03:25:09.875Z,8.68
2019-03-08T03:27:41.766Z,8.67
2019-03-08T03:30:15.660Z,8.56
2019-03-08T03:32:47.514Z,8.60
2019-03-08T03:35:19.310Z,8.60
2019-03-08T03:37:51.413Z,8.75
2019-03-08T03:40:23.327Z,8.66
2019-03-08T03:42:55.251Z,8.82
2019-03-08T03:45:33.200Z,8.53
2019-03-08T03:48:06.909Z,8.71
2019-03-08T03:50:38.740Z,8.71
2019-03-08T03:53:10.534Z,8.74
2019-03-08T03:55:42.928Z,8.76
2019-03-08T03:58:16.968Z,8.76
2019-03-08T04:00:48.763Z,8.67
2019-03-08T04:03:23.907Z,8.61
2019-03-08T04:05:55.688Z,8.37
2019-03-08T04:08:27.924Z,8.43
2019-03-08T04:11:01.117Z,8.40
2019-03-08T04:13:34.842Z,8.24
2019-03-08T04:16:07.562Z,8.33
2019-03-08T04:18:39.380Z,8.25
2019-03-08T04:21:11.192Z,8.35
2019-03-08T04:23:43.129Z,8.38
2019-03-08T04:26:15.023Z,8.32
2019-03-08T04:28:47.470Z,8.20
2019-03-08T04:31:19.401Z,8.10
2019-03-08T04:33:51.398Z,8.13
2019-03-08T04:36:23.269Z,8.01
2019-03-08T04:38:55.172Z,8.09
2019-03-08T04:41:26.983Z,8.08
2019-03-08T04:43:58.825Z,8.07
2019-03-08T04:46:33.092Z,7.83
2019-03-08T04:49:05.055Z,7.97
2019-03-08T04:51:36.966Z,7.96
2019-03-08T04:54:09.142Z,7.82
2019-03-08T04:56:41.209Z,7.79
2019-03-08T04:59:13.135Z,7.77
2019-03-08T05:01:44.945Z,7.68
2019-03-08T05:04:16.792Z,7.49
2019-03-08T05:06:48.607Z,7.37
2019-03-08T05:09:20.647Z,7.29
2019-03-08T05:11:52.460Z,7.15
2019-03-08T05:14:24.269Z,7.33
2019-03-08T05:16:59.042Z,7.32
2019-03-08T05:19:31.183Z,7.40
2019-03-08T05:22:03.003Z,7.48
2019-03-08T05:24:34.943Z,7.66
2019-03-08T05:27:06.714Z,7.68
2019-03-08T05:29:40.041Z,7.47
2019-03-08T05:32:12.002Z,7.49
2019-03-08T05:34:43.864Z,7.36
2019-03-08T05:37:15.663Z,7.43
2019-03-08T05:39:47.540Z,7.75
2019-03-08T05:42:19.368Z,7.79
2019-03-08T05:44:52.839Z,7.86
2019-03-08T05:47:24.711Z,7.85
2019-03-08T05:49:56.534Z,7.47
2019-03-08T05:52:28.357Z,7.40
2019-03-08T05:55:00.347Z,7.51
2019-03-08T05:57:32.151Z,7.52
2019-03-08T06:00:04.204Z,7.43
2019-03-08T06:02:37.196Z,7.24
2019-03-08T06:05:09.111Z,7.10
2019-03-08T06:07:41.752Z,7.07
2019-03-08T06:10:36.033Z,7.18
2019-03-08T06:13:07.996Z,7.05
2019-03-08T06:15:39.929Z,6.98
2019-03-08T06:18:14.418Z,6.93
2019-03-08T06:20:47.771Z,6.81
2019-03-08T06:23:20.596Z,7.00
2019-03-08T06:25:52.536Z,7.19
2019-03-08T06:28:24.324Z,7.23
2019-03-08T06:30:56.168Z,7.36
2019-03-08T06:33:29.629Z,7.44
2019-03-08T06:36:01.433Z,7.47
2019-03-08T06:38:34.377Z,7.40
2019-03-08T06:41:06.191Z,7.61
2019-03-08T06:43:38.297Z,7.32
2019-03-08T06:46:11.491Z,7.65
2019-03-08T06:48:43.399Z,7.27
2019-03-08T06:51:15.571Z,7.40
2019-03-08T06:53:47.404Z,7.38
2019-03-08T06:56:19.241Z,7.41
2019-03-08T06:59:14.337Z,7.60
2019-03-08T07:01:46.301Z,6.76
2019-03-08T07:04:18.095Z,6.92
2019-03-08T07:06:50.105Z,7.32
2019-03-08T07:09:22.349Z,7.42
2019-03-08T07:11:56.222Z,7.28
2019-03-08T07:14:31.265Z,7.34
2019-03-08T07:17:03.658Z,7.32
2019-03-08T07:19:41.590Z,7.45
2019-03-08T07:22:33.037Z,7.29
2019-03-08T07:25:27.272Z,7.22
2019-03-08T07:28:27.038Z,7.12
2019-03-08T07:31:21.221Z,7.17
2019-03-08T07:34:13.619Z,7.25
2019-03-08T07:37:11.169Z,7.20
2019-03-08T07:40:01.857Z,7.08
2019-03-08T07:42:52.560Z,7.26
2019-03-08T07:45:44.198Z,7.02
2019-03-08T07:48:44.098Z,7.03
2019-03-08T07:51:28.498Z,6.91
2019-03-08T07:54:18.246Z,6.96
2019-03-08T07:57:08.495Z,7.45
2019-03-08T07:59:55.553Z,7.34
2019-03-08T08:02:33.929Z,7.81
2019-03-08T08:05:19.481Z,7.76
2019-03-08T08:08:20.192Z,7.68
2019-03-08T08:11:25.942Z,7.99
2019-03-08T08:14:29.540Z,8.05
2019-03-08T08:17:26.240Z,8.09
2019-03-08T08:20:16.339Z,8.31
2019-03-08T08:23:00.484Z,8.67
2019-03-08T08:25:53.083Z,9.07
2019-03-08T08:28:34.406Z,9.83
2019-03-08T08:31:34.651Z,9.90
2019-03-08T08:34:31.272Z,10.34
2019-03-08T08:37:28.475Z,11.43
2019-03-08T08:40:18.331Z,11.70
2019-03-08T08:43:15.115Z,12.42
2019-03-08T08:46:15.768Z,12.99
2019-03-08T08:49:09.269Z,12.62
2019-03-08T08:52:07.029Z,13.25
2019-03-08T08:55:08.373Z,15.07
2019-03-08T08:57:59.192Z,15.67
2019-03-08T09:00:49.849Z,15.93
2019-03-08T09:03:34.836Z,17.37
2019-03-08T09:06:26.185Z,18.78
2019-03-08T09:09:16.970Z,20.63
2019-03-08T09:12:12.453Z,21.77
2019-03-08T09:14:50.913Z,24.41
2019-03-08T09:17:30.260Z,25.59
2019-03-08T09:20:29.809Z,25.73
2019-03-08T09:23:09.431Z,26.18
2019-03-08T09:25:57.597Z,26.95
2019-03-08T09:28:54.275Z,27.04
2019-03-08T09:31:53.949Z,28.37
2019-03-08T09:34:52.396Z,27.67
2019-03-08T09:37:43.265Z,27.71
2019-03-08T09:40:34.368Z,28.91
2019-03-08T09:43:28.694Z,28.42
2019-03-08T09:46:25.895Z,29.76
2019-03-08T09:49:25.441Z,29.79
2019-03-08T09:52:16.207Z,27.63
2019-03-08T09:55:03.135Z,28.15
2019-03-08T09:58:09.642Z,29.83
2019-03-08T10:00:50.576Z,29.03
2019-03-08T10:03:33.189Z,30.27
2019-03-08T10:06:24.117Z,27.14
2019-03-08T10:09:10.416Z,25.96
2019-03-08T10:12:07.104Z,29.50
2019-03-08T10:14:56.667Z,30.25
2019-03-08T10:17:50.355Z,31.85
2019-03-08T10:20:39.688Z,29.75
2019-03-08T10:23:20.350Z,29.62
2019-03-08T10:26:12.416Z,31.89
2019-03-08T10:28:56.498Z,33.83
2019-03-08T10:31:50.561Z,32.75
2019-03-08T10:34:56.809Z,31.14
2019-03-08T10:37:47.496Z,31.72
2019-03-08T10:40:36.736Z,30.87
2019-03-08T10:43:23.574Z,30.55
2019-03-08T10:46:16.559Z,32.06
2019-03-08T10:49:16.311Z,30.13
2019-03-08T10:52:17.264Z,31.56
2019-03-08T10:55:17.623Z,30.76
2019-03-08T10:58:15.709Z,31.10
2019-03-08T11:01:10.362Z,29.02
2019-03-08T11:04:06.860Z,29.59
2019-03-08T11:06:55.499Z,29.62
2019-03-08T11:09:49.371Z,31.15
2019-03-08T11:12:46.234Z,29.91
2019-03-08T11:15:36.718Z,28.15
2019-03-08T11:18:45.733Z,29.50
2019-03-08T11:21:31.244Z,31.40
2019-03-08T11:24:20.664Z,30.84
2019-03-08T11:27:10.052Z,29.88
2019-03-08T11:30:03.411Z,28.65
2019-03-08T11:32:54.241Z,29.41
2019-03-08T11:35:43.613Z,30.39
2019-03-08T11:38:27.883Z,30.82
2019-03-08T11:41:31.264Z,30.36
2019-03-08T11:44:30.801Z,32.18
2019-03-08T11:47:24.080Z,31.83
2019-03-08T11:50:24.111Z,29.26
2019-03-08T11:53:21.456Z,28.01
2019-03-08T11:56:18.550Z,27.48
2019-03-08T11:59:12.239Z,26.61
2019-03-08T12:02:07.821Z,28.79
2019-03-08T12:04:58.237Z,28.42
2019-03-08T12:07:52.124Z,29.10
2019-03-08T12:10:43.177Z,29.22
2019-03-08T12:13:39.882Z,27.75
2019-03-08T12:16:34.429Z,29.54
2019-03-08T12:19:43.328Z,29.14
2019-03-08T12:22:45.863Z,29.14
2019-03-08T12:25:54.655Z,28.56
2019-03-08T12:29:02.471Z,28.18
2019-03-08T12:31:53.295Z,29.39
2019-03-08T12:34:44.324Z,30.04
2019-03-08T12:37:37.095Z,30.77
2019-03-08T12:40:35.880Z,29.26
2019-03-08T12:43:26.595Z,27.84
2019-03-08T12:46:25.716Z,25.74
2019-03-08T12:49:20.368Z,23.75
2019-03-08T12:52:07.806Z,22.96
2019-03-08T12:55:10.522Z,21.82
2019-03-08T12:58:04.203Z,20.49
2019-03-08T13:00:43.169Z,19.96
2019-03-08T13:03:45.950Z,20.05
2019-03-08T13:06:52.785Z,20.42
2019-03-08T13:09:52.590Z,19.93
2019-03-08T13:12:24.423Z,20.10
2019-03-08T13:14:57.742Z,19.68
2019-03-08T13:17:29.548Z,19.64
2019-03-08T13:20:01.376Z,19.86
2019-03-08T13:22:38.058Z,19.92
2019-03-08T13:25:10.116Z,20.31
2019-03-08T13:27:43.165Z,20.60
2019-03-08T13:30:18.187Z,20.63
2019-03-08T13:32:54.428Z,20.75
2019-03-08T13:35:28.558Z,20.53
2019-03-08T13:38:00.624Z,20.47
2019-03-08T13:40:32.470Z,20.68
2019-03-08T13:43:04.448Z,20.10
2019-03-08T13:45:36.256Z,20.07
2019-03-08T13:48:09.952Z,20.23
2019-03-08T13:50:41.720Z,20.63
2019-03-08T13:53:13.529Z,20.68
2019-03-08T13:55:45.336Z,20.25
2019-03-08T13:58:17.153Z,20.04
2019-03-08T14:00:50.242Z,20.42
2019-03-08T14:03:23.736Z,20.36
2019-03-08T14:05:55.593Z,20.28
2019-03-08T14:08:27.407Z,20.13
2019-03-08T14:10:59.226Z,20.18
2019-03-08T14:13:31.079Z,20.39
2019-03-08T14:16:03.283Z,20.20
2019-03-08T14:18:35.096Z,19.74
2019-03-08T14:21:07.014Z,19.73
2019-03-08T14:23:39.384Z,19.84
2019-03-08T14:26:11.192Z,19.62
2019-03-08T14:28:42.963Z,19.43
2019-03-08T14:31:21.794Z,18.94
2019-03-08T14:33:53.573Z,18.95
2019-03-08T14:36:25.406Z,19.17
2019-03-08T14:38:57.546Z,19.18
2019-03-08T14:41:43.232Z,19.03
2019-03-08T14:44:38.824Z,19.17
2019-03-08T14:47:32.793Z,19.15
2019-03-08T14:50:02.708Z,18.86
2019-03-08T14:52:36.411Z,18.82
2019-03-08T14:55:11.138Z,18.96
2019-03-08T14:57:42.912Z,18.79
2019-03-08T15:00:33.081Z,18.83
2019-03-08T15:03:04.993Z,18.85
2019-03-08T15:05:38.590Z,18.81
2019-03-08T15:08:13.746Z,18.73
2019-03-08T15:10:47.223Z,18.99
2019-03-08T15:13:20.077Z,19.19
2019-03-08T15:15:53.293Z,19.18
2019-03-08T15:18:25.955Z,19.48
2019-03-08T15:21:00.069Z,19.39
2019-03-08T15:23:32.181Z,19.43
2019-03-08T15:26:04.296Z,19.26
2019-03-08T15:28:36.198Z,19.59
2019-03-08T15:31:08.410Z,19.50
2019-03-08T15:33:40.281Z,19.66
2019-03-08T15:36:13.615Z,19.49
2019-03-08T15:38:45.683Z,19.02
2019-03-08T15:41:17.554Z,18.72
2019-03-08T15:43:51.230Z,18.44
2019-03-08T15:46:26.753Z,18.78
2019-03-08T15:48:58.242Z,18.75
2019-03-08T15:51:30.012Z,18.44
2019-03-08T15:54:01.879Z,18.47
2019-03-08T15:56:33.694Z,18.62
2019-03-08T15:59:05.621Z,17.94
2019-03-08T16:01:39.173Z,18.23
2019-03-08T16:04:13.071Z,17.95
2019-03-08T16:06:45.426Z,18.19
2019-03-08T16:09:17.390Z,17.38
2019-03-08T16:11:49.229Z,17.14
2019-03-08T16:14:21.058Z,17.27
2019-03-08T16:16:54.621Z,17.38
2019-03-08T16:19:27.596Z,17.11
2019-03-08T16:21:59.448Z,16.85
2019-03-08T16:24:32.656Z,16.79
2019-03-08T16:27:04.878Z,16.52
2019-03-08T16:29:36.693Z,16.30
2019-03-08T16:32:31.538Z,16.41
2019-03-08T16:35:04.257Z,16.27
2019-03-08T16:37:58.449Z,16.26
2019-03-08T16:40:48.932Z,16.15
2019-03-08T16:43:42.016Z,16.18
2019-03-08T16:46:28.323Z,16.27
2019-03-08T16:49:14.798Z,16.08
2019-03-08T16:52:08.588Z,16.11
2019-03-08T16:55:11.257Z,16.03
2019-03-08T16:57:53.469Z,15.90
2019-03-08T17:00:43.018Z,15.83
2019-03-08T17:03:25.434Z,15.70
2019-03-08T17:06:26.331Z,15.70
2019-03-08T17:09:10.429Z,15.94
2019-03-08T17:12:01.586Z,15.80
2019-03-08T17:15:07.966Z,15.78
2019-03-08T17:18:07.453Z,15.95
2019-03-08T17:20:48.702Z,16.03
2019-03-08T17:23:51.690Z,15.75
2019-03-08T17:26:35.590Z,15.61
2019-03-08T17:29:13.926Z,15.83
2019-03-08T17:32:04.707Z,15.68
2019-03-08T17:35:06.323Z,15.65
2019-03-08T17:37:50.722Z,15.59
2019-03-08T17:40:47.496Z,15.60
2019-03-08T17:43:53.969Z,15.75
2019-03-08T17:46:40.683Z,15.74
2019-03-08T17:49:32.170Z,15.72
2019-03-08T17:52:14.444Z,15.65
2019-03-08T17:55:15.032Z,15.25
2019-03-08T17:58:18.245Z,15.25
2019-03-08T18:01:09.026Z,15.14
2019-03-08T18:03:55.532Z,15.15
2019-03-08T18:06:40.186Z,15.02
2019-03-08T18:09:24.969Z,15.13
2019-03-08T18:12:14.568Z,15.01
2019-03-08T18:15:02.930Z,15.27
2019-03-08T18:17:53.985Z,14.97
2019-03-08T18:20:49.409Z,15.08
2019-03-08T18:23:31.371Z,14.94
2019-03-08T18:26:43.772Z,14.88
2019-03-08T18:29:33.474Z,14.78
2019-03-08T18:32:33.429Z,14.62
2019-03-08T18:35:23.734Z,14.76
2019-03-08T18:38:14.279Z,14.70
2019-03-08T18:41:05.299Z,14.58
2019-03-08T18:44:06.960Z,14.46
2019-03-08T18:47:07.047Z,14.73
2019-03-08T18:50:07.031Z,14.25
2019-03-08T18:53:12.884Z,14.20
2019-03-08T18:56:12.651Z,14.18
2019-03-08T18:59:06.712Z,13.96
2019-03-08T19:02:04.466Z,14.10
2019-03-08T19:05:01.383Z,13.87
2019-03-08T19:08:15.563Z,13.77
2019-03-08T19:11:11.328Z,13.73
2019-03-08T19:14:02.318Z,13.51
2019-03-08T19:16:53.361Z,13.64
2019-03-08T19:19:53.257Z,13.33
2019-03-08T19:23:06.680Z,13.25
2019-03-08T19:26:10.467Z,13.20
2019-03-08T19:29:00.955Z,13.18
2019-03-08T19:31:38.781Z,13.08
2019-03-08T19:34:28.484Z,13.03
2019-03-08T19:37:20.152Z,13.04
2019-03-08T19:40:09.880Z,12.99
2019-03-08T19:43:06.994Z,12.97
2019-03-08T19:45:58.128Z,12.97
2019-03-08T19:48:47.449Z,12.87
2019-03-08T19:51:39.147Z,12.92
2019-03-08T19:54:19.039Z,12.89
2019-03-08T19:57:17.560Z,12.71
2019-03-08T20:00:07.713Z,12.67
2019-03-08T20:03:07.938Z,12.62
2019-03-08T20:05:48.116Z,12.61
2019-03-08T20:08:45.304Z,12.66
2019-03-08T20:11:45.173Z,12.65
2019-03-08T20:14:39.347Z,12.70
2019-03-08T20:17:46.593Z,12.77
2019-03-08T20:20:50.234Z,12.56
2019-03-08T20:23:53.624Z,12.31
2019-03-08T20:26:50.230Z,12.31
2019-03-08T20:29:45.903Z,12.14
2019-03-08T20:32:40.144Z,12.14
2019-03-08T20:35:23.668Z,12.21
2019-03-08T20:38:13.278Z,11.95
2019-03-08T20:40:54.874Z,12.01
2019-03-08T20:43:41.129Z,11.99
2019-03-08T20:46:19.905Z,12.04
2019-03-08T20:48:52.019Z,12.05
2019-03-08T20:51:24.753Z,12.06
2019-03-08T20:54:00.737Z,11.90
2019-03-08T20:56:39.427Z,11.98
2019-03-08T20:59:12.270Z,11.89
2019-03-08T21:01:44.232Z,11.90
2019-03-08T21:04:17.867Z,11.95
2019-03-08T21:06:51.303Z,11.93
2019-03-08T21:09:23.519Z,11.89
2019-03-08T21:11:55.993Z,12.00
2019-03-08T21:14:28.265Z,11.93
2019-03-08T21:17:02.822Z,11.80
2019-03-08T21:19:36.118Z,11.76
2019-03-08T21:22:08.148Z,11.78
2019-03-08T21:24:40.105Z,11.69
2019-03-08T21:27:16.785Z,11.65
2019-03-08T21:29:49.373Z,11.63
2019-03-08T21:32:21.714Z,11.65
2019-03-08T21:34:53.611Z,11.69
2019-03-08T21:37:25.671Z,11.73
2019-03-08T21:40:00.742Z,11.57
2019-03-08T21:42:36.986Z,11.48
2019-03-08T21:45:10.726Z,11.53
2019-03-08T21:47:42.858Z,11.49
2019-03-08T21:50:18.276Z,11.51
2019-03-08T21:52:50.281Z,11.52
2019-03-08T21:55:22.211Z,11.43
2019-03-08T21:57:55.260Z,11.72
2019-03-08T22:00:28.127Z,11.74
2019-03-08T22:03:02.129Z,11.62
2019-03-08T22:05:38.465Z,11.78
2019-03-08T22:08:17.238Z,11.79
2019-03-08T22:10:59.933Z,11.80
2019-03-08T22:13:35.579Z,11.89
2019-03-08T22:16:08.244Z,11.85
2019-03-08T22:18:40.451Z,11.82
2019-03-08T22:21:12.852Z,11.90
2019-03-08T22:23:44.813Z,11.88
2019-03-08T22:26:16.907Z,11.97
2019-03-08T22:28:51.261Z,12.04
2019-03-08T22:31:23.217Z,11.95
2019-03-08T22:33:55.191Z,11.59
2019-03-08T22:36:29.352Z,11.51
2019-03-08T22:39:01.338Z,11.47
2019-03-08T22:41:35.656Z,11.41
2019-03-08T22:44:08.481Z,11.48
2019-03-08T22:46:45.198Z,11.61
2019-03-08T22:49:14.821Z,11.53
2019-03-08T22:51:57.402Z,11.44
2019-03-08T22:54:35.864Z,11.42
2019-03-08T22:57:07.815Z,11.26
2019-03-08T22:59:39.648Z,11.29
2019-03-08T23:02:11.690Z,11.33
2019-03-08T23:04:43.911Z,11.34
2019-03-08T23:07:15.715Z,11.32
2019-03-08T23:09:50.614Z,11.35
2019-03-08T23:12:22.490Z,11.25
2019-03-08T23:14:54.395Z,11.24
2019-03-08T23:17:26.256Z,10.97
2019-03-08T23:19:58.134Z,10.81
2019-03-08T23:22:30.311Z,10.93
2019-03-08T23:25:04.849Z,10.77
2019-03-08T23:27:41.843Z,10.66
2019-03-08T23:30:18.509Z,10.48
2019-03-08T23:32:54.246Z,10.40
2019-03-08T23:35:26.065Z,10.44
2019-03-08T23:38:01.196Z,10.41
2019-03-08T23:40:35.680Z,10.63
2019-03-08T23:43:10.112Z,10.71
2019-03-08T23:45:41.956Z,10.78
2019-03-08T23:48:13.985Z,10.78
2019-03-08T23:50:46.339Z,10.90
2019-03-08T23:53:18.125Z,10.92
2019-03-08T23:55:51.707Z,10.96
2019-03-08T23:58:23.900Z,10.93
